Time;durP1;ratioP1;P1;durP2;ratioP2;P2;SDS_P1;SDS_P2;PMS_P1;PMS_P2;Temp;Humidity;BMP_temperature;BMP_pressure;BME280_temperature;BME280_humidity;BME280_pressure;Samples;Min_cycle;Max_cycle;Signal;HPM_P1;HPM_P2
2021/08/19 00:01:43;;;;;;;4.50;3.03;;;;;;;;;;5067363;28;20055;-88
2021/08/19 00:04:28;;;;;;;5.07;3.03;;;;;;;;;;5068397;28;20075;-88
2021/08/19 00:07:13;;;;;;;5.18;3.50;;;;;;;;;;5068638;28;20124;-88
2021/08/19 00:09:57;;;;;;;6.65;3.40;;;;;;;;;;5067712;28;20044;-88
2021/08/19 00:12:42;;;;;;;4.22;2.92;;;;;;;;;;5067959;28;20627;-86
2021/08/19 00:15:26;;;;;;;4.95;3.22;;;;;;;;;;5068263;28;20114;-88
2021/08/19 00:18:11;;;;;;;4.90;3.13;;;;;;;;;;5068737;28;20101;-82
2021/08/19 00:20:55;;;;;;;4.25;3.20;;;;;;;;;;5068329;28;20121;-86
2021/08/19 00:23:40;;;;;;;5.72;3.13;;;;;;;;;;5051842;28;20120;-85
2021/08/19 00:26:25;;;;;;;4.97;3.05;;;;;;;;;;5013442;28;20051;-88
2021/08/19 00:29:10;;;;;;;6.45;3.30;;;;;;;;;;5027951;28;20095;-88
2021/08/19 00:31:54;;;;;;;5.60;3.42;;;;;;;;;;5027064;28;20044;-88
2021/08/19 00:34:39;;;;;;;4.88;3.10;;;;;;;;;;5028148;28;20530;-87
2021/08/19 00:37:23;;;;;;;4.40;3.03;;;;;;;;;;5026837;28;20092;-88
2021/08/19 00:40:08;;;;;;;4.80;3.20;;;;;;;;;;5026563;28;20052;-87
2021/08/19 00:42:53;;;;;;;3.97;3.10;;;;;;;;;;5027791;28;20040;-88
2021/08/19 00:45:37;;;;;;;4.57;3.20;;;;;;;;;;5013268;28;20128;-87
2021/08/19 00:48:22;;;;;;;5.32;3.42;;;;;;;;;;5027160;28;20198;-88
2021/08/19 00:51:07;;;;;;;5.05;3.35;;;;;;;;;;5028337;28;20076;-89
2021/08/19 00:53:51;;;;;;;4.60;3.20;;;;;;;;;;5013648;28;20336;-88
2021/08/19 00:56:37;;;;;;;4.22;3.28;;;;;;;;;;5028159;28;20039;-89
2021/08/19 00:59:25;;;;;;;4.57;3.25;;;;;;;;;;5027403;28;20091;-88
2021/08/19 01:02:10;;;;;;;4.43;3.28;;;;;;;;;;5013646;28;20506;-88
2021/08/19 01:04:54;;;;;;;4.38;3.35;;;;;;;;;;5026891;28;20858;-89
2021/08/19 01:07:39;;;;;;;5.05;3.03;;;;;;;;;;5013681;28;20044;-88
2021/08/19 01:10:23;;;;;;;4.53;3.13;;;;;;;;;;5027149;28;20092;-88
2021/08/19 01:13:08;;;;;;;4.30;3.15;;;;;;;;;;5028186;28;20048;-82
2021/08/19 01:15:52;;;;;;;5.50;3.20;;;;;;;;;;5028116;28;20041;-77
2021/08/19 01:18:40;;;;;;;5.07;3.60;;;;;;;;;;5026597;28;20082;-89
2021/08/19 01:21:25;;;;;;;4.50;3.10;;;;;;;;;;5012534;28;20107;-87
2021/08/19 01:24:10;;;;;;;4.35;3.33;;;;;;;;;;5026025;28;20092;-89
2021/08/19 01:26:55;;;;;;;5.78;3.60;;;;;;;;;;5026551;28;20239;-88
2021/08/19 01:29:39;;;;;;;4.95;3.15;;;;;;;;;;5025686;28;20535;-88
2021/08/19 01:32:24;;;;;;;5.68;3.40;;;;;;;;;;5027342;28;20040;-88
2021/08/19 01:35:09;;;;;;;5.30;3.58;;;;;;;;;;5026251;28;20088;-84
2021/08/19 01:37:53;;;;;;;5.00;3.13;;;;;;;;;;5027925;28;20040;-89
2021/08/19 01:40:38;;;;;;;4.78;3.08;;;;;;;;;;5027011;28;20107;-78
2021/08/19 01:43:24;;;;;;;4.38;3.00;;;;;;;;;;5012992;28;20701;-88
2021/08/19 01:46:09;;;;;;;4.95;3.17;;;;;;;;;;5027680;28;20048;-89
2021/08/19 01:48:54;;;;;;;5.63;3.20;;;;;;;;;;5027760;28;20060;-88
2021/08/19 01:51:38;;;;;;;4.75;3.30;;;;;;;;;;5027347;28;20047;-88
2021/08/19 01:54:23;;;;;;;4.25;3.33;;;;;;;;;;5028628;28;20441;-88
2021/08/19 01:57:08;;;;;;;3.70;3.10;;;;;;;;;;5027221;28;20083;-88
2021/08/19 01:59:52;;;;;;;5.43;3.33;;;;;;;;;;5027196;28;20068;-88
2021/08/19 02:02:37;;;;;;;4.82;3.30;;;;;;;;;;5027208;28;20078;-88
2021/08/19 02:05:21;;;;;;;5.18;3.40;;;;;;;;;;5028366;28;20047;-89
2021/08/19 02:08:06;;;;;;;3.72;3.00;;;;;;;;;;5027402;28;20088;-88
2021/08/19 02:10:51;;;;;;;4.40;3.30;;;;;;;;;;5027324;28;20426;-89
2021/08/19 02:13:35;;;;;;;4.45;3.05;;;;;;;;;;5028008;28;20040;-88
2021/08/19 02:16:20;;;;;;;4.20;3.08;;;;;;;;;;5032763;28;20661;-89
2021/08/19 02:19:05;;;;;;;3.60;2.63;;;;;;;;;;5046889;28;20505;-89
2021/08/19 02:21:49;;;;;;;3.85;2.88;;;;;;;;;;5048329;28;20413;-87
2021/08/19 02:24:34;;;;;;;3.90;3.03;;;;;;;;;;5046853;28;20132;-89
2021/08/19 02:27:18;;;;;;;3.95;2.88;;;;;;;;;;5047998;28;20148;-88
2021/08/19 02:30:03;;;;;;;4.07;3.03;;;;;;;;;;5047049;28;20139;-90
2021/08/19 02:32:55;;;;;;;4.82;3.00;;;;;;;;;;5048012;28;20076;-89
2021/08/19 02:35:39;;;;;;;5.28;3.30;;;;;;;;;;5047233;28;20106;-88
2021/08/19 02:38:24;;;;;;;3.20;2.38;;;;;;;;;;5047765;28;20087;-86
2021/08/19 02:41:09;;;;;;;4.13;2.65;;;;;;;;;;5047679;28;20047;-88
2021/08/19 02:43:53;;;;;;;3.60;2.70;;;;;;;;;;5047479;28;20041;-88
2021/08/19 02:46:38;;;;;;;3.88;2.92;;;;;;;;;;5047640;28;20040;-88
2021/08/19 02:49:22;;;;;;;4.18;2.85;;;;;;;;;;5047342;28;20048;-89
2021/08/19 02:52:07;;;;;;;3.67;2.72;;;;;;;;;;5046658;28;20063;-88
2021/08/19 02:54:51;;;;;;;3.95;2.70;;;;;;;;;;5047514;28;20879;-89
2021/08/19 02:57:36;;;;;;;3.80;2.88;;;;;;;;;;5046501;28;20044;-88
2021/08/19 03:00:20;;;;;;;3.78;2.72;;;;;;;;;;5050810;28;20048;-88
2021/08/19 03:03:05;;;;;;;4.13;2.88;;;;;;;;;;5050455;28;20505;-89
2021/08/19 03:05:49;;;;;;;4.47;2.95;;;;;;;;;;5052021;28;20044;-88
2021/08/19 03:08:34;;;;;;;3.50;2.58;;;;;;;;;;5037798;28;20414;-88
2021/08/19 03:11:18;;;;;;;3.65;2.80;;;;;;;;;;5051703;28;20079;-90
2021/08/19 03:14:03;;;;;;;3.88;2.65;;;;;;;;;;5051644;28;20094;-90
2021/08/19 03:16:47;;;;;;;4.30;2.78;;;;;;;;;;5051504;28;20039;-89
2021/08/19 03:19:32;;;;;;;4.88;3.05;;;;;;;;;;5051345;28;20059;-87
2021/08/19 03:22:17;;;;;;;4.10;2.78;;;;;;;;;;5054331;28;20062;-88
2021/08/19 03:25:01;;;;;;;3.55;2.65;;;;;;;;;;5071525;28;20086;-90
2021/08/19 03:27:46;;;;;;;3.65;2.72;;;;;;;;;;5071294;28;20536;-88
2021/08/19 03:30:31;;;;;;;3.88;2.58;;;;;;;;;;5071062;28;20047;-88
2021/08/19 03:33:17;;;;;;;3.88;2.88;;;;;;;;;;5070174;28;20040;-88
2021/08/19 03:36:02;;;;;;;4.53;2.70;;;;;;;;;;5069190;28;20180;-89
2021/08/19 03:38:47;;;;;;;3.67;2.72;;;;;;;;;;5070731;28;20113;-88
2021/08/19 03:41:33;;;;;;;3.53;2.60;;;;;;;;;;5070585;28;20125;-88
2021/08/19 03:44:17;;;;;;;3.72;2.50;;;;;;;;;;5070210;28;20116;-89
2021/08/19 03:47:02;;;;;;;4.32;2.50;;;;;;;;;;5071802;28;20043;-88
2021/08/19 03:49:47;;;;;;;5.10;2.83;;;;;;;;;;5070794;28;20098;-89
2021/08/19 03:52:31;;;;;;;3.60;2.70;;;;;;;;;;5071341;28;20046;-88
2021/08/19 03:55:16;;;;;;;4.18;2.63;;;;;;;;;;5070707;28;20047;-89
2021/08/19 03:58:01;;;;;;;4.78;2.80;;;;;;;;;;5070777;28;20054;-89
2021/08/19 04:00:47;;;;;;;3.45;2.55;;;;;;;;;;5070794;28;20124;-89
2021/08/19 04:03:32;;;;;;;3.90;2.47;;;;;;;;;;5070463;28;20047;-89
2021/08/19 04:06:20;;;;;;;3.20;2.58;;;;;;;;;;5069597;28;20155;-89
2021/08/19 04:09:04;;;;;;;3.58;2.53;;;;;;;;;;5069302;28;20519;-88
2021/08/19 04:11:49;;;;;;;4.32;2.58;;;;;;;;;;5069121;28;20595;-89
2021/08/19 04:14:33;;;;;;;3.25;2.33;;;;;;;;;;5056188;28;20036;-88
2021/08/19 04:17:18;;;;;;;3.83;2.58;;;;;;;;;;5049773;28;20055;-86
2021/08/19 04:20:03;;;;;;;4.35;2.40;;;;;;;;;;5049710;28;20587;-87
2021/08/19 04:22:48;;;;;;;4.45;2.78;;;;;;;;;;5057005;28;20039;-89
2021/08/19 04:25:32;;;;;;;3.13;2.35;;;;;;;;;;5068957;28;20051;-89
2021/08/19 04:28:17;;;;;;;4.35;2.70;;;;;;;;;;5068469;28;20044;-88
2021/08/19 04:31:01;;;;;;;4.78;2.75;;;;;;;;;;5068569;28;20244;-88
2021/08/19 04:33:45;;;;;;;3.33;2.40;;;;;;;;;;5068186;28;20075;-88
2021/08/19 04:36:33;;;;;;;3.10;2.40;;;;;;;;;;5068748;28;20044;-88
2021/08/19 04:39:18;;;;;;;3.72;2.25;;;;;;;;;;5069184;28;20047;-88
2021/08/19 04:42:02;;;;;;;3.28;2.35;;;;;;;;;;5069437;28;20051;-87
2021/08/19 04:44:46;;;;;;;3.38;2.40;;;;;;;;;;5054162;28;20112;-88
2021/08/19 04:47:31;;;;;;;3.78;2.10;;;;;;;;;;5063303;28;20094;-88
2021/08/19 04:50:16;;;;;;;3.75;2.45;;;;;;;;;;5068391;28;20143;-89
2021/08/19 04:53:00;;;;;;;3.17;2.30;;;;;;;;;;5067570;28;20108;-89
2021/08/19 04:55:45;;;;;;;3.92;2.63;;;;;;;;;;5068063;28;20079;-89
2021/08/19 04:58:30;;;;;;;3.22;2.30;;;;;;;;;;5067219;28;20094;-88
2021/08/19 05:01:14;;;;;;;4.28;2.40;;;;;;;;;;5066614;28;20097;-87
2021/08/19 05:03:59;;;;;;;3.53;2.45;;;;;;;;;;5068098;28;20040;-86
2021/08/19 05:06:44;;;;;;;3.35;2.60;;;;;;;;;;5052295;28;20047;-87
2021/08/19 05:09:28;;;;;;;4.30;2.65;;;;;;;;;;5067900;28;20071;-89
2021/08/19 05:12:14;;;;;;;2.78;2.25;;;;;;;;;;5066223;28;20488;-88
2021/08/19 05:14:58;;;;;;;3.97;2.50;;;;;;;;;;5067827;28;20043;-76
2021/08/19 05:17:43;;;;;;;4.90;2.63;;;;;;;;;;5066280;28;20042;-84
2021/08/19 05:20:27;;;;;;;3.50;2.60;;;;;;;;;;5066301;28;20108;-86
2021/08/19 05:23:12;;;;;;;4.07;2.90;;;;;;;;;;5056646;28;20087;-89
2021/08/19 05:25:56;;;;;;;3.95;2.85;;;;;;;;;;5047561;28;20136;-87
2021/08/19 05:28:40;;;;;;;3.20;2.58;;;;;;;;;;5046530;28;20087;-88
2021/08/19 05:31:25;;;;;;;3.40;2.28;;;;;;;;;;5032462;28;20925;-86
2021/08/19 05:34:09;;;;;;;4.85;2.78;;;;;;;;;;5046161;28;20086;-89
2021/08/19 05:36:54;;;;;;;3.33;2.60;;;;;;;;;;5046001;28;20125;-86
2021/08/19 05:39:38;;;;;;;3.20;2.50;;;;;;;;;;5047246;28;20063;-78
2021/08/19 05:42:23;;;;;;;3.15;2.63;;;;;;;;;;5046687;28;20075;-89
2021/08/19 05:45:08;;;;;;;4.88;2.72;;;;;;;;;;5045669;28;20087;-88
2021/08/19 05:47:52;;;;;;;3.40;2.75;;;;;;;;;;5045958;28;20063;-78
2021/08/19 05:50:37;;;;;;;3.20;2.30;;;;;;;;;;5045314;28;20076;-87
2021/08/19 05:53:22;;;;;;;3.75;2.55;;;;;;;;;;5045105;28;20040;-82
2021/08/19 05:56:06;;;;;;;4.55;2.70;;;;;;;;;;5046833;28;20131;-89
2021/08/19 05:58:51;;;;;;;4.22;2.47;;;;;;;;;;5045571;28;20039;-88
2021/08/19 06:01:37;;;;;;;3.20;2.70;;;;;;;;;;5045667;28;20056;-88
2021/08/19 06:04:22;;;;;;;3.35;2.58;;;;;;;;;;5031747;28;20040;-85
2021/08/19 06:07:06;;;;;;;3.47;2.30;;;;;;;;;;5045364;28;20126;-87
2021/08/19 06:09:51;;;;;;;4.32;2.40;;;;;;;;;;5045491;28;20047;-88
2021/08/19 06:12:36;;;;;;;4.35;2.65;;;;;;;;;;5046510;28;20275;-88
2021/08/19 06:15:20;;;;;;;3.17;2.60;;;;;;;;;;5031734;28;20114;-87
2021/08/19 06:18:05;;;;;;;6.65;2.75;;;;;;;;;;5046894;28;20044;-88
2021/08/19 06:20:50;;;;;;;6.05;3.92;;;;;;;;;;5044615;28;20118;-86
2021/08/19 06:23:34;;;;;;;4.00;2.60;;;;;;;;;;5059449;28;20121;-88
2021/08/19 06:26:19;;;;;;;4.63;2.50;;;;;;;;;;5066217;28;20039;-88
2021/08/19 06:29:03;;;;;;;3.05;2.20;;;;;;;;;;5065325;28;20043;-88
2021/08/19 06:31:48;;;;;;;4.18;2.70;;;;;;;;;;5066992;28;20543;-89
2021/08/19 06:34:34;;;;;;;3.38;2.40;;;;;;;;;;5064899;28;20094;-88
2021/08/19 06:37:19;;;;;;;4.05;2.58;;;;;;;;;;5066383;28;20061;-84
2021/08/19 06:40:04;;;;;;;4.07;2.60;;;;;;;;;;5065397;28;20051;-88
2021/08/19 06:42:48;;;;;;;3.25;2.50;;;;;;;;;;5065904;28;20043;-79
2021/08/19 06:45:32;;;;;;;3.85;2.80;;;;;;;;;;5051600;28;20093;-89
2021/08/19 06:48:17;;;;;;;4.03;2.53;;;;;;;;;;5066648;28;20123;-88
2021/08/19 06:51:02;;;;;;;3.60;2.75;;;;;;;;;;5066090;28;20109;-86
2021/08/19 06:53:46;;;;;;;3.72;2.33;;;;;;;;;;5066269;28;20039;-90
2021/08/19 06:56:31;;;;;;;3.60;2.38;;;;;;;;;;5066154;28;20118;-89
2021/08/19 06:59:16;;;;;;;2.85;2.30;;;;;;;;;;5058091;28;20129;-89
2021/08/19 07:02:01;;;;;;;3.80;2.67;;;;;;;;;;5039744;28;20051;-88
2021/08/19 07:04:45;;;;;;;3.72;2.40;;;;;;;;;;5047773;28;20547;-89
2021/08/19 07:07:30;;;;;;;3.78;2.58;;;;;;;;;;5066359;28;20044;-86
2021/08/19 07:10:15;;;;;;;4.93;2.35;;;;;;;;;;5065080;28;20129;-88
2021/08/19 07:12:59;;;;;;;3.15;2.15;;;;;;;;;;5051277;28;20040;-89
2021/08/19 07:15:45;;;;;;;4.05;2.28;;;;;;;;;;5066566;28;20035;-88
2021/08/19 07:18:30;;;;;;;4.05;2.53;;;;;;;;;;5051344;28;20043;-88
2021/08/19 07:21:14;;;;;;;3.13;2.20;;;;;;;;;;5064882;28;20396;-88
2021/08/19 07:23:59;;;;;;;2.90;2.30;;;;;;;;;;5065937;28;20036;-88
2021/08/19 07:26:44;;;;;;;3.10;2.35;;;;;;;;;;5066048;28;20093;-88
2021/08/19 07:29:28;;;;;;;2.70;2.20;;;;;;;;;;5064890;28;20047;-88
2021/08/19 07:32:14;;;;;;;4.43;2.45;;;;;;;;;;5065433;28;20042;-88
2021/08/19 07:34:59;;;;;;;2.45;2.13;;;;;;;;;;5066140;28;20093;-89
2021/08/19 07:37:44;;;;;;;3.15;2.20;;;;;;;;;;5064870;28;20051;-88
2021/08/19 07:40:29;;;;;;;3.13;2.33;;;;;;;;;;5065262;28;20174;-87
2021/08/19 07:43:14;;;;;;;3.00;2.40;;;;;;;;;;5064756;28;20039;-89
2021/08/19 07:45:58;;;;;;;3.58;2.30;;;;;;;;;;5066013;28;20067;-88
2021/08/19 07:48:44;;;;;;;2.80;2.20;;;;;;;;;;5068438;28;20122;-88
2021/08/19 07:51:34;;;;;;;2.70;2.20;;;;;;;;;;5054369;28;20781;-88
2021/08/19 07:54:18;;;;;;;3.92;2.58;;;;;;;;;;5044628;28;20048;-88
2021/08/19 07:57:03;;;;;;;2.97;2.40;;;;;;;;;;5048486;28;20072;-89
2021/08/19 07:59:48;;;;;;;2.95;2.30;;;;;;;;;;5048997;28;20578;-88
2021/08/19 08:02:33;;;;;;;2.95;2.47;;;;;;;;;;5034151;28;20063;-87
2021/08/19 08:05:17;;;;;;;3.45;2.42;;;;;;;;;;5047860;28;20516;-89
2021/08/19 08:08:03;;;;;;;3.08;2.15;;;;;;;;;;5048955;28;20083;-86
2021/08/19 08:10:48;;;;;;;3.65;2.50;;;;;;;;;;5047524;28;20094;-88
2021/08/19 08:13:32;;;;;;;3.53;2.53;;;;;;;;;;5049018;28;20473;-86
2021/08/19 08:16:17;;;;;;;4.07;2.72;;;;;;;;;;5047785;28;20561;-87
2021/08/19 08:19:02;;;;;;;2.83;2.25;;;;;;;;;;5048244;28;20299;-89
2021/08/19 08:21:47;;;;;;;2.63;2.20;;;;;;;;;;5047385;28;20120;-88
2021/08/19 08:24:31;;;;;;;2.80;2.13;;;;;;;;;;5047655;28;20090;-88
2021/08/19 08:27:16;;;;;;;3.58;2.30;;;;;;;;;;5048093;28;20048;-89
2021/08/19 08:30:01;;;;;;;2.97;2.30;;;;;;;;;;5047533;28;20092;-87
2021/08/19 08:32:45;;;;;;;2.65;2.05;;;;;;;;;;5047485;28;20044;-84
2021/08/19 08:35:39;;;;;;;3.50;2.42;;;;;;;;;;5047514;28;20108;-89
2021/08/19 08:38:24;;;;;;;2.72;2.22;;;;;;;;;;5034558;28;20067;-88
2021/08/19 08:41:08;;;;;;;2.70;2.15;;;;;;;;;;5047148;28;20484;-89
2021/08/19 08:43:53;;;;;;;2.70;2.10;;;;;;;;;;5047353;28;20035;-89
2021/08/19 08:46:37;;;;;;;3.00;2.28;;;;;;;;;;5047326;28;20579;-89
2021/08/19 08:49:22;;;;;;;2.83;2.10;;;;;;;;;;5047144;28;20141;-87
2021/08/19 08:52:07;;;;;;;2.70;2.17;;;;;;;;;;5046764;28;20044;-88
2021/08/19 08:54:51;;;;;;;3.25;2.30;;;;;;;;;;5062709;28;20048;-88
2021/08/19 08:57:36;;;;;;;2.80;2.00;;;;;;;;;;5066118;28;20129;-89
2021/08/19 09:00:21;;;;;;;2.85;2.33;;;;;;;;;;5052825;28;20051;-89
2021/08/19 09:03:08;;;;;;;2.78;2.10;;;;;;;;;;5067729;28;20067;-88
2021/08/19 09:05:52;;;;;;;2.50;2.30;;;;;;;;;;5066652;28;20132;-88
2021/08/19 09:08:38;;;;;;;2.70;2.08;;;;;;;;;;5067060;28;20063;-88
2021/08/19 09:11:23;;;;;;;2.90;2.10;;;;;;;;;;5064196;28;20046;-88
2021/08/19 09:14:18;;;;;;;2.70;2.03;;;;;;;;;;5066208;28;20447;-89
2021/08/19 09:17:03;;;;;;;3.10;2.40;;;;;;;;;;5066419;28;20591;-88
2021/08/19 09:19:48;;;;;;;2.72;2.00;;;;;;;;;;5065371;28;20047;-87
2021/08/19 09:22:51;;;;;;;3.67;2.75;;;;;;;;;;5065668;28;20047;-87
2021/08/19 09:25:37;;;;;;;2.50;1.88;;;;;;;;;;5067298;28;20089;-88
2021/08/19 09:28:23;;;;;;;2.40;1.90;;;;;;;;;;5067870;28;20113;-88
2021/08/19 09:31:08;;;;;;;3.20;2.40;;;;;;;;;;5065606;28;20124;-86
2021/08/19 09:33:53;;;;;;;3.42;2.35;;;;;;;;;;5066496;28;20093;-86
2021/08/19 09:36:37;;;;;;;3.00;2.20;;;;;;;;;;5065397;28;20541;-79
2021/08/19 09:39:31;;;;;;;3.22;2.47;;;;;;;;;;5065586;28;20113;-87
2021/08/19 09:42:16;;;;;;;4.90;2.70;;;;;;;;;;5051475;28;20109;-86
2021/08/19 09:45:00;;;;;;;3.05;2.35;;;;;;;;;;5065287;28;20075;-84
2021/08/19 09:47:45;;;;;;;2.80;2.20;;;;;;;;;;5065276;28;20418;-85
2021/08/19 09:50:29;;;;;;;3.13;2.50;;;;;;;;;;5064944;28;20039;-84
2021/08/19 09:53:15;;;;;;;2.92;2.40;;;;;;;;;;5065386;28;20083;-83
2021/08/19 09:55:59;;;;;;;2.85;2.15;;;;;;;;;;5030206;28;20167;-83
2021/08/19 09:58:45;;;;;;;2.72;2.40;;;;;;;;;;5030132;28;20044;-83
2021/08/19 10:01:29;;;;;;;2.80;2.05;;;;;;;;;;5044909;28;20059;-83
2021/08/19 10:04:14;;;;;;;2.72;2.25;;;;;;;;;;5045175;28;20059;-84
2021/08/19 10:06:59;;;;;;;2.88;2.15;;;;;;;;;;5044185;28;20093;-84
2021/08/19 10:09:44;;;;;;;3.67;2.20;;;;;;;;;;5043646;28;20478;-85
2021/08/19 10:12:29;;;;;;;2.47;2.17;;;;;;;;;;5044129;28;20044;-85
2021/08/19 10:15:13;;;;;;;3.35;2.40;;;;;;;;;;5043485;28;20153;-86
2021/08/19 10:17:58;;;;;;;3.40;2.17;;;;;;;;;;5030064;28;20083;-86
2021/08/19 10:20:43;;;;;;;2.78;2.20;;;;;;;;;;5044281;28;20110;-85
2021/08/19 10:23:28;;;;;;;2.80;2.17;;;;;;;;;;5044200;28;20128;-87
2021/08/19 10:26:13;;;;;;;2.92;2.30;;;;;;;;;;5030306;28;20075;-87
2021/08/19 10:28:58;;;;;;;2.75;2.20;;;;;;;;;;5044401;28;20048;-80
2021/08/19 10:31:44;;;;;;;2.72;2.20;;;;;;;;;;5044571;28;20043;-88
2021/08/19 10:34:52;;;;;;;2.92;2.30;;;;;;;;;;5046666;28;20103;-89
2021/08/19 10:37:47;;;;;;;3.40;2.60;;;;;;;;;;5047954;28;20741;-90
2021/08/19 10:40:36;;;;;;;2.65;2.10;;;;;;;;;;5047413;28;20055;-91
2021/08/19 10:43:23;;;;;;;2.70;2.13;;;;;;;;;;5049041;28;20040;-91
2021/08/19 10:46:12;;;;;;;2.75;2.03;;;;;;;;;;5048906;28;20083;-79
2021/08/19 10:48:57;;;;;;;2.60;2.00;;;;;;;;;;5048248;28;20039;-91
2021/08/19 10:51:41;;;;;;;2.55;2.03;;;;;;;;;;5049309;28;20051;-91
2021/08/19 10:54:32;;;;;;;2.85;2.00;;;;;;;;;;5058773;28;20408;-91
2021/08/19 10:57:24;;;;;;;2.80;2.28;;;;;;;;;;5068474;28;20043;-90
2021/08/19 11:00:12;;;;;;;2.17;1.90;;;;;;;;;;5069191;28;20055;-92
2021/08/19 11:02:57;;;;;;;2.40;2.03;;;;;;;;;;5054166;28;20040;-90
2021/08/19 11:05:44;;;;;;;2.83;2.03;;;;;;;;;;5054325;28;20040;-90
2021/08/19 11:08:42;;;;;;;3.33;2.13;;;;;;;;;;5069269;28;20036;-90
2021/08/19 11:11:30;;;;;;;3.45;2.50;;;;;;;;;;5068334;28;20512;-90
2021/08/19 11:14:18;;;;;;;2.40;2.20;;;;;;;;;;5069203;28;20523;-91
2021/08/19 11:17:02;;;;;;;2.38;2.00;;;;;;;;;;5068367;28;20133;-91
2021/08/19 11:19:47;;;;;;;2.97;2.33;;;;;;;;;;5069729;28;20539;-92
2021/08/19 11:22:31;;;;;;;2.78;2.10;;;;;;;;;;5057803;28;20043;-91
2021/08/19 11:25:20;;;;;;;2.65;2.13;;;;;;;;;;5057931;28;20355;-90
2021/08/19 11:28:09;;;;;;;2.80;2.22;;;;;;;;;;5071542;28;20042;-92
2021/08/19 11:30:54;;;;;;;2.70;2.03;;;;;;;;;;5071749;28;20055;-91
2021/08/19 11:33:39;;;;;;;2.70;2.05;;;;;;;;;;5072017;28;20047;-92
2021/08/19 11:36:24;;;;;;;2.83;2.03;;;;;;;;;;5072112;28;20063;-91
2021/08/19 11:39:09;;;;;;;2.78;2.30;;;;;;;;;;5071920;28;20063;-92
2021/08/19 11:41:57;;;;;;;2.35;2.15;;;;;;;;;;5072484;28;20051;-91
2021/08/19 11:44:41;;;;;;;3.05;2.15;;;;;;;;;;5071792;28;20115;-90
2021/08/19 11:47:26;;;;;;;2.42;1.80;;;;;;;;;;5070137;28;20413;-89
2021/08/19 11:50:11;;;;;;;2.65;1.90;;;;;;;;;;5070175;28;20047;-91
2021/08/19 11:53:01;;;;;;;3.30;2.10;;;;;;;;;;5072823;28;20105;-91
2021/08/19 11:55:46;;;;;;;2.83;1.87;;;;;;;;;;5032845;28;20052;-91
2021/08/19 11:58:31;;;;;;;2.90;2.05;;;;;;;;;;5033919;28;20068;-89
2021/08/19 12:01:15;;;;;;;2.53;1.98;;;;;;;;;;5028514;28;20063;-84
2021/08/19 12:04:00;;;;;;;2.97;2.13;;;;;;;;;;5028830;28;20044;-89
2021/08/19 12:06:45;;;;;;;2.97;2.13;;;;;;;;;;5028524;28;20513;-88
2021/08/19 12:09:31;;;;;;;2.42;2.00;;;;;;;;;;5029507;28;20485;-77
2021/08/19 12:12:16;;;;;;;2.45;2.25;;;;;;;;;;5047033;28;20063;-90
2021/08/19 12:15:00;;;;;;;2.60;2.10;;;;;;;;;;5064994;28;20059;-89
2021/08/19 12:18:04;;;;;;;3.03;2.20;;;;;;;;;;5063807;28;20465;-90
2021/08/19 12:20:53;;;;;;;2.42;2.20;;;;;;;;;;5065140;28;20047;-89
2021/08/19 12:23:37;;;;;;;2.95;2.10;;;;;;;;;;5034398;28;20044;-89
2021/08/19 12:26:23;;;;;;;3.47;2.15;;;;;;;;;;5033785;28;20071;-88
2021/08/19 12:29:08;;;;;;;2.22;2.03;;;;;;;;;;5048216;28;20389;-88
2021/08/19 12:31:54;;;;;;;2.72;2.00;;;;;;;;;;5046832;28;20043;-89
2021/08/19 12:34:55;;;;;;;2.15;1.85;;;;;;;;;;5052708;28;20590;-89
2021/08/19 12:37:40;;;;;;;2.17;1.90;;;;;;;;;;5049771;28;20093;-88
2021/08/19 12:40:29;;;;;;;2.50;2.00;;;;;;;;;;5053192;28;20053;-88
2021/08/19 12:43:14;;;;;;;2.65;2.10;;;;;;;;;;5033981;28;20048;-88
2021/08/19 12:46:05;;;;;;;2.45;1.98;;;;;;;;;;5045733;28;20068;-89
2021/08/19 12:48:51;;;;;;;2.58;2.10;;;;;;;;;;5046834;28;20041;-87
2021/08/19 12:51:36;;;;;;;2.53;2.00;;;;;;;;;;5046507;28;20044;-87
2021/08/19 12:54:21;;;;;;;2.60;2.05;;;;;;;;;;5057246;28;20457;-83
2021/08/19 12:57:05;;;;;;;2.75;2.20;;;;;;;;;;5067534;28;20089;-86
2021/08/19 12:59:50;;;;;;;2.42;1.90;;;;;;;;;;5066069;28;20051;-87
2021/08/19 13:02:34;;;;;;;2.22;1.83;;;;;;;;;;5051743;28;20040;-86
2021/08/19 13:05:19;;;;;;;2.80;1.95;;;;;;;;;;5066471;28;20876;-86
2021/08/19 13:08:04;;;;;;;2.65;1.90;;;;;;;;;;5066164;28;20051;-86
2021/08/19 13:10:49;;;;;;;2.53;2.00;;;;;;;;;;5065208;28;20094;-86
2021/08/19 13:13:33;;;;;;;2.47;2.00;;;;;;;;;;5050798;28;20047;-85
2021/08/19 13:16:18;;;;;;;2.35;1.92;;;;;;;;;;5064871;28;20174;-85
2021/08/19 13:19:03;;;;;;;2.60;2.10;;;;;;;;;;5064857;28;20039;-85
2021/08/19 13:21:47;;;;;;;2.42;2.03;;;;;;;;;;5050613;28;20523;-87
2021/08/19 13:24:32;;;;;;;2.25;2.03;;;;;;;;;;5050783;28;20062;-86
2021/08/19 13:27:17;;;;;;;2.35;1.70;;;;;;;;;;5064681;28;20039;-87
2021/08/19 13:30:01;;;;;;;2.25;2.00;;;;;;;;;;5065107;28;20194;-86
2021/08/19 13:32:47;;;;;;;2.80;2.13;;;;;;;;;;5064497;28;20098;-86
2021/08/19 13:35:32;;;;;;;2.40;1.75;;;;;;;;;;5065888;28;20128;-86
2021/08/19 13:38:17;;;;;;;2.50;2.10;;;;;;;;;;5047974;28;20040;-86
2021/08/19 13:41:01;;;;;;;2.53;1.90;;;;;;;;;;5063806;28;20110;-86
2021/08/19 13:43:45;;;;;;;2.28;1.90;;;;;;;;;;5062665;28;20165;-86
2021/08/19 13:46:30;;;;;;;2.70;2.00;;;;;;;;;;5064153;28;20511;-84
2021/08/19 13:49:15;;;;;;;3.45;2.20;;;;;;;;;;5063255;28;20582;-86
2021/08/19 13:51:59;;;;;;;2.47;2.17;;;;;;;;;;5062376;28;20079;-86
2021/08/19 13:54:44;;;;;;;2.83;2.13;;;;;;;;;;5049017;28;20522;-85
2021/08/19 13:57:28;;;;;;;2.53;2.10;;;;;;;;;;5041782;28;20071;-85
2021/08/19 14:00:13;;;;;;;2.35;2.10;;;;;;;;;;5043501;28;20059;-76
2021/08/19 14:02:58;;;;;;;2.63;2.00;;;;;;;;;;5043622;28;20103;-84
2021/08/19 14:05:42;;;;;;;2.92;1.80;;;;;;;;;;5042267;28;20063;-85
2021/08/19 14:08:27;;;;;;;2.28;2.00;;;;;;;;;;5041513;28;20048;-85
2021/08/19 14:11:11;;;;;;;2.33;2.00;;;;;;;;;;5044937;28;20044;-86
2021/08/19 14:13:56;;;;;;;2.30;2.10;;;;;;;;;;5041812;28;20062;-85
2021/08/19 14:16:42;;;;;;;2.47;2.00;;;;;;;;;;5030079;28;20048;-87
2021/08/19 14:19:27;;;;;;;2.83;2.00;;;;;;;;;;5042145;28;20090;-85
2021/08/19 14:22:12;;;;;;;3.13;1.90;;;;;;;;;;5043323;28;20047;-86
2021/08/19 14:24:56;;;;;;;2.10;1.77;;;;;;;;;;5028857;28;20036;-86
2021/08/19 14:27:41;;;;;;;2.47;1.85;;;;;;;;;;5040810;28;20044;-86
2021/08/19 14:30:26;;;;;;;2.50;2.10;;;;;;;;;;5043588;28;20551;-86
2021/08/19 14:33:11;;;;;;;2.17;1.80;;;;;;;;;;5045166;28;20138;-85
2021/08/19 14:35:55;;;;;;;2.25;2.05;;;;;;;;;;5043610;28;20131;-85
2021/08/19 14:38:39;;;;;;;2.67;2.30;;;;;;;;;;5028602;28;20870;-86
2021/08/19 14:41:24;;;;;;;2.20;1.90;;;;;;;;;;5043824;28;20099;-85
2021/08/19 14:44:08;;;;;;;2.50;1.88;;;;;;;;;;5043565;28;20044;-86
2021/08/19 14:46:53;;;;;;;2.65;2.10;;;;;;;;;;5043516;28;20044;-85
2021/08/19 14:49:37;;;;;;;2.53;2.10;;;;;;;;;;5029117;28;20170;-86
2021/08/19 14:52:21;;;;;;;2.97;1.88;;;;;;;;;;5042272;28;20437;-82
2021/08/19 14:55:06;;;;;;;2.63;2.30;;;;;;;;;;5062365;28;20090;-85
2021/08/19 14:57:51;;;;;;;2.78;1.90;;;;;;;;;;5065430;28;20137;-86
2021/08/19 15:00:36;;;;;;;2.20;1.92;;;;;;;;;;5066971;28;20047;-85
2021/08/19 15:03:21;;;;;;;2.67;2.15;;;;;;;;;;5067366;28;20869;-85
2021/08/19 15:06:06;;;;;;;2.55;2.00;;;;;;;;;;5066847;28;20109;-87
2021/08/19 15:08:50;;;;;;;2.13;1.80;;;;;;;;;;5067421;28;20062;-85
2021/08/19 15:11:38;;;;;;;2.80;1.90;;;;;;;;;;5052371;28;20731;-85
2021/08/19 15:14:22;;;;;;;2.60;2.00;;;;;;;;;;5050705;28;20687;-86
2021/08/19 15:17:07;;;;;;;2.75;1.95;;;;;;;;;;5067060;28;20071;-83
2021/08/19 15:19:52;;;;;;;3.63;2.20;;;;;;;;;;5065353;28;20650;-86
2021/08/19 15:22:36;;;;;;;2.53;2.10;;;;;;;;;;5066847;28;20082;-86
2021/08/19 15:25:21;;;;;;;2.40;2.00;;;;;;;;;;5067291;28;20121;-86
2021/08/19 15:28:09;;;;;;;2.38;2.10;;;;;;;;;;5068142;28;20036;-86
2021/08/19 15:30:53;;;;;;;2.53;1.95;;;;;;;;;;5052370;28;20071;-85
2021/08/19 15:33:38;;;;;;;2.35;2.15;;;;;;;;;;5065973;28;20064;-85
2021/08/19 15:36:22;;;;;;;2.58;2.20;;;;;;;;;;5066372;28;20040;-85
2021/08/19 15:39:07;;;;;;;3.08;2.25;;;;;;;;;;5065305;28;20071;-85
2021/08/19 15:41:52;;;;;;;3.03;2.20;;;;;;;;;;5050222;28;20119;-83
2021/08/19 15:44:37;;;;;;;2.47;2.22;;;;;;;;;;5066436;28;20107;-85
2021/08/19 15:47:22;;;;;;;3.38;2.20;;;;;;;;;;5065452;28;20133;-85
2021/08/19 15:50:07;;;;;;;2.42;2.00;;;;;;;;;;5062375;28;20158;-82
2021/08/19 15:52:52;;;;;;;2.60;2.20;;;;;;;;;;5064964;28;20038;-86
2021/08/19 15:55:36;;;;;;;2.30;2.10;;;;;;;;;;5024590;28;20037;-86
2021/08/19 15:58:21;;;;;;;2.53;2.15;;;;;;;;;;5026038;28;20513;-85
2021/08/19 16:01:05;;;;;;;2.67;2.20;;;;;;;;;;5025206;28;20052;-86
2021/08/19 16:03:50;;;;;;;2.42;1.98;;;;;;;;;;5024277;28;20156;-86
2021/08/19 16:06:35;;;;;;;2.47;2.22;;;;;;;;;;5025006;28;20063;-86
2021/08/19 16:09:23;;;;;;;2.70;1.98;;;;;;;;;;5025394;28;20052;-83
2021/08/19 16:12:08;;;;;;;2.92;2.30;;;;;;;;;;5028118;28;20072;-85
2021/08/19 16:14:52;;;;;;;2.80;2.13;;;;;;;;;;5026842;28;20044;-85
2021/08/19 16:17:37;;;;;;;2.95;2.17;;;;;;;;;;5027219;28;20086;-86
2021/08/19 16:20:21;;;;;;;2.60;2.30;;;;;;;;;;5026915;28;20048;-86
2021/08/19 16:23:06;;;;;;;2.58;1.90;;;;;;;;;;5013582;28;20040;-86
2021/08/19 16:25:50;;;;;;;2.47;2.13;;;;;;;;;;5027590;28;20410;-86
2021/08/19 16:28:35;;;;;;;2.50;2.30;;;;;;;;;;5024280;28;20149;-81
2021/08/19 16:31:19;;;;;;;2.45;2.10;;;;;;;;;;5025516;28;20879;-87